Terminal Aerodrome Forecast
Issued by NWS

Home | Current Version | Previous Version | Text Only | Print | Product List | Glossary On
Versions: 1 2 3 4 5 6 7 8 9 10 11 12 13
000
FTUS44 KLZK 172300
TAFPBF
TAF
KPBF 172332Z 1800/1824 12007KT P6SM SCT100 BKN250
     FM180400 14005KT P6SM FEW050 OVC100
     FM181000 08005KT P6SM BKN050 OVC100
     FM181500 07007KT P6SM BKN050 OVC100
     FM181800 06009KT P6SM SCT050 BKN100 BKN250=

USA.gov is the U.S. government's official web portal to all federal, state and local government web resources and services.